Saigon Express — VRBT7 — position and weather

sailwx.info

Track history (hours):
 
Tides and Currents Weather Stations Pressure Air Temp Water Temp Dewpoint Dewpoint Depression Visibility Wind Speed Wind Dir Waves Ship Positions

Saigon Express

Last reported at 2015-Apr-27 01:34 UTC. Time now 2015-Apr-28 11:54 UTC.
Position N 30°48' E 032°19'.

Length 260 m; draft 11.9 m.

Type: Ship (hazmat cat A). MMSI: 477106800.

Date/timePositionNaut miles runAvg speedWind from/ knotsBaromVisibWave heightAir tempDewpointWater temp
2015-Apr-27 01:34N 30°48' E 032°19'9 9.1
2015-Apr-27 00:34N 30°57' E 032°19'9 8.9
2015-Apr-26 23:33N 31°06' E 032°18'8 7.8
2015-Apr-26 22:34N 31°14' E 032°18'1 0.3
2015-Apr-26 20:32N 31°15' E 032°18'0 0.0
2015-Apr-26 19:29N 31°15' E 032°18'0 0.0
2015-Apr-26 18:32N 31°15' E 032°18'0 0.0
2015-Apr-26 17:32N 31°15' E 032°18'0 0.0
2015-Apr-26 16:31N 31°15' E 032°18'0 0.0
2015-Apr-26 15:28N 31°15' E 032°18'0 0.0
2015-Apr-26 14:31N 31°15' E 032°18'0 0.0
2015-Apr-26 13:31N 31°15' E 032°18'0 0.0
2015-Apr-26 12:04N 31°15' E 032°18'0 0.0
2015-Apr-26 09:28N 31°15' E 032°18'11 0.8
2015-Apr-25 20:21N 31°25' E 032°20'0 0.0
2015-Apr-25 14:18N 31°25' E 032°20'377 9.8
2015-Apr-24 00:00N 33°30' E 025°18'22518.8 060 / 21026.010.8 17.015.321.0
2015-Apr-23 12:00N 34°42' E 021°00'8118.3 350 / 31027.010.8 18.014.621.0
2015-Apr-23 07:33N 35°07' E 019°25'13519.2
2015-Apr-23 00:33N 35°47' E 016°48'1017.3
2015-Apr-23 00:00N 35°48' E 016°36'1022.3 100 / 31026.010.8 18.014.616.0
2015-Apr-22 23:33N 35°53' E 016°25'1919.2
2015-Apr-22 22:33N 35°59' E 016°03'3919.2
2015-Apr-22 20:31N 36°11' E 015°17'1919.1
2015-Apr-22 19:31N 36°17' E 014°54'1819.1
2015-Apr-22 18:34N 36°21' E 014°32'1221.0
2015-Apr-22 18:00N 36°24' E 014°18'716.8 100 / 31026.010.8 18.014.616.0
2015-Apr-22 17:33N 36°26' E 014°09'1919.1
2015-Apr-22 16:34N 36°32' E 013°47'1919.0
2015-Apr-22 15:33N 36°38' E 013°24'1918.8
2015-Apr-22 14:34N 36°44' E 013°02'1919.0
2015-Apr-22 13:33N 36°50' E 012°39'1919.1
2015-Apr-22 12:34N 36°55' E 012°17'1919.1
2015-Apr-22 11:34N 37°03' E 011°55'1918.8
2015-Apr-22 10:34N 37°12' E 011°34'1919.1
2015-Apr-22 09:34N 37°22' E 011°13'2318.8
2015-Apr-22 08:20N 37°29' E 010°46'1519.0
2015-Apr-22 07:33N 37°32' E 010°28'1918.9
2015-Apr-22 06:32N 37°33' E 010°03'6418.8
2015-Apr-22 03:08N 37°19' E 008°45'10819.2
2015-Apr-21 21:30N 37°15' E 006°29'2619.1
2015-Apr-21 20:09N 37°14' E 005°57'4018.7
2015-Apr-21 18:00N 37°12' E 005°06'6618.6 060 / 251023.010.8 1.517.013.516.0
2015-Apr-21 14:27N 37°13' E 003°43'13718.7
2015-Apr-21 07:09N 36°55' E 000°54'1218.6
2015-Apr-21 06:29N 36°52' E 000°39'1225.0
2015-Apr-21 06:00N 36°48' E 000°24'612.6 080 / 251022.010.8 0.517.013.514.0
2015-Apr-21 05:33N 36°48' E 000°17'4318.2
2015-Apr-21 03:11N 36°38' W 000°36'1117.7
2015-Apr-21 02:33N 36°35' W 000°49'2218.4
2015-Apr-21 01:20N 36°31' W 001°16'2216.3
2015-Apr-21 00:00N 36°24' W 001°42'17718.8 050 / 251021.010.8 1.018.012.714.0
2015-Apr-20 14:33N 35°59' W 005°19'17817.7
2015-Apr-20 04:29N 35°54' W 008°59'1818.3
2015-Apr-20 03:30N 35°56' W 009°21'4118.6
2015-Apr-20 01:17N 36°01' W 010°11'13718.8
2015-Apr-19 18:00N 36°18' W 013°00'22518.8 130 / 61024.010.8 0.518.012.718.0
2015-Apr-19 06:00N 37°00' W 017°36'11318.8 350 / 81023.010.8 0.514.010.214.0
2015-Apr-19 00:00N 37°24' W 019°54'18619.4 320 / 81023.010.8 0.515.011.314.0
2015-Apr-18 14:27N 37°52' W 023°46'1719.1
2015-Apr-18 13:33N 37°55' W 024°07'1919.3
2015-Apr-18 12:34N 37°58' W 024°31'1919.1
2015-Apr-18 11:33N 38°01' W 024°55'1919.1
2015-Apr-18 10:33N 38°04' W 025°19'1919.1
2015-Apr-18 09:34N 38°04' W 025°43'1918.7
2015-Apr-18 08:33N 38°03' W 026°07'1818.5
2015-Apr-18 07:33N 38°02' W 026°30'1918.5
2015-Apr-18 06:33N 38°01' W 026°54'1818.4
2015-Apr-18 05:33N 37°60' W 027°17'1918.5
2015-Apr-18 04:33N 37°59' W 027°40'1918.8
2015-Apr-18 03:33N 37°57' W 028°04'2318.8
2015-Apr-18 02:21N 37°55' W 028°33'1519.0
2015-Apr-18 01:33N 37°53' W 028°52'1919.2
2015-Apr-18 00:33N 37°53' W 029°16'814.5
2015-Apr-18 00:00N 37°48' W 029°24'1431.4 290 / 221018.0 5.4 2.014.012.214.0
2015-Apr-17 23:33N 37°53' W 029°40'1919.0
2015-Apr-17 22:33N 37°53' W 030°04'1918.9
2015-Apr-17 21:33N 37°52' W 030°28'28718.5
2015-Apr-17 06:00N 37°30' W 036°30'   250 / 261014.0 5.4 2.516.012.416.0
Track history (hours):
 
Tides and Currents Weather Stations Pressure Air Temp Water Temp Dewpoint Dewpoint Depression Visibility Wind Speed Wind Dir Waves Ship Positions

Saigon Express

Last reported at 2015-Apr-27 01:34 UTC. Time now 2015-Apr-28 11:54 UTC.
Position N 30°48' E 032°19'.

Length 260 m; draft 11.9 m.

Type: Ship (hazmat cat A). MMSI: 477106800.

Date/timePositionNaut miles runAvg speedWind from/ knotsBaromVisibWave heightAir tempDewpointWater temp
2015-Apr-27 01:34N 30°48' E 032°19'9 9.1
2015-Apr-27 00:34N 30°57' E 032°19'9 8.9
2015-Apr-26 23:33N 31°06' E 032°18'8 7.8
2015-Apr-26 22:34N 31°14' E 032°18'1 0.3
2015-Apr-26 20:32N 31°15' E 032°18'0 0.0
2015-Apr-26 19:29N 31°15' E 032°18'0 0.0
2015-Apr-26 18:32N 31°15' E 032°18'0 0.0
2015-Apr-26 17:32N 31°15' E 032°18'0 0.0
2015-Apr-26 16:31N 31°15' E 032°18'0 0.0
2015-Apr-26 15:28N 31°15' E 032°18'0 0.0
2015-Apr-26 14:31N 31°15' E 032°18'0 0.0
2015-Apr-26 13:31N 31°15' E 032°18'0 0.0
2015-Apr-26 12:04N 31°15' E 032°18'0 0.0
2015-Apr-26 09:28N 31°15' E 032°18'11 0.8
2015-Apr-25 20:21N 31°25' E 032°20'0 0.0
2015-Apr-25 14:18N 31°25' E 032°20'377 9.8
2015-Apr-24 00:00N 33°30' E 025°18'22518.8 060 / 21026.010.8 17.015.321.0
2015-Apr-23 12:00N 34°42' E 021°00'8118.3 350 / 31027.010.8 18.014.621.0
2015-Apr-23 07:33N 35°07' E 019°25'13519.2
2015-Apr-23 00:33N 35°47' E 016°48'1017.3
2015-Apr-23 00:00N 35°48' E 016°36'1022.3 100 / 31026.010.8 18.014.616.0
2015-Apr-22 23:33N 35°53' E 016°25'1919.2
2015-Apr-22 22:33N 35°59' E 016°03'3919.2
2015-Apr-22 20:31N 36°11' E 015°17'1919.1
2015-Apr-22 19:31N 36°17' E 014°54'1819.1
2015-Apr-22 18:34N 36°21' E 014°32'1221.0
2015-Apr-22 18:00N 36°24' E 014°18'716.8 100 / 31026.010.8 18.014.616.0
2015-Apr-22 17:33N 36°26' E 014°09'1919.1
2015-Apr-22 16:34N 36°32' E 013°47'1919.0
2015-Apr-22 15:33N 36°38' E 013°24'1918.8
2015-Apr-22 14:34N 36°44' E 013°02'1919.0
2015-Apr-22 13:33N 36°50' E 012°39'1919.1
2015-Apr-22 12:34N 36°55' E 012°17'1919.1
2015-Apr-22 11:34N 37°03' E 011°55'1918.8
2015-Apr-22 10:34N 37°12' E 011°34'1919.1
2015-Apr-22 09:34N 37°22' E 011°13'2318.8
2015-Apr-22 08:20N 37°29' E 010°46'1519.0
2015-Apr-22 07:33N 37°32' E 010°28'1918.9
2015-Apr-22 06:32N 37°33' E 010°03'6418.8
2015-Apr-22 03:08N 37°19' E 008°45'10819.2
2015-Apr-21 21:30N 37°15' E 006°29'2619.1
2015-Apr-21 20:09N 37°14' E 005°57'4018.7
2015-Apr-21 18:00N 37°12' E 005°06'6618.6 060 / 251023.010.8 1.517.013.516.0
2015-Apr-21 14:27N 37°13' E 003°43'13718.7
2015-Apr-21 07:09N 36°55' E 000°54'1218.6
2015-Apr-21 06:29N 36°52' E 000°39'1225.0
2015-Apr-21 06:00N 36°48' E 000°24'612.6 080 / 251022.010.8 0.517.013.514.0
2015-Apr-21 05:33N 36°48' E 000°17'4318.2
2015-Apr-21 03:11N 36°38' W 000°36'1117.7
2015-Apr-21 02:33N 36°35' W 000°49'2218.4
2015-Apr-21 01:20N 36°31' W 001°16'2216.3
2015-Apr-21 00:00N 36°24' W 001°42'17718.8 050 / 251021.010.8 1.018.012.714.0
2015-Apr-20 14:33N 35°59' W 005°19'17817.7
2015-Apr-20 04:29N 35°54' W 008°59'1818.3
2015-Apr-20 03:30N 35°56' W 009°21'4118.6
2015-Apr-20 01:17N 36°01' W 010°11'13718.8
2015-Apr-19 18:00N 36°18' W 013°00'22518.8 130 / 61024.010.8 0.518.012.718.0
2015-Apr-19 06:00N 37°00' W 017°36'11318.8 350 / 81023.010.8 0.514.010.214.0
2015-Apr-19 00:00N 37°24' W 019°54'18619.4 320 / 81023.010.8 0.515.011.314.0
2015-Apr-18 14:27N 37°52' W 023°46'1719.1
2015-Apr-18 13:33N 37°55' W 024°07'1919.3
2015-Apr-18 12:34N 37°58' W 024°31'1919.1
2015-Apr-18 11:33N 38°01' W 024°55'1919.1
2015-Apr-18 10:33N 38°04' W 025°19'1919.1
2015-Apr-18 09:34N 38°04' W 025°43'1918.7
2015-Apr-18 08:33N 38°03' W 026°07'1818.5
2015-Apr-18 07:33N 38°02' W 026°30'1918.5
2015-Apr-18 06:33N 38°01' W 026°54'1818.4
2015-Apr-18 05:33N 37°60' W 027°17'1918.5
2015-Apr-18 04:33N 37°59' W 027°40'1918.8
2015-Apr-18 03:33N 37°57' W 028°04'2318.8
2015-Apr-18 02:21N 37°55' W 028°33'1519.0
2015-Apr-18 01:33N 37°53' W 028°52'1919.2
2015-Apr-18 00:33N 37°53' W 029°16'814.5
2015-Apr-18 00:00N 37°48' W 029°24'1431.4 290 / 221018.0 5.4 2.014.012.214.0
2015-Apr-17 23:33N 37°53' W 029°40'1919.0
2015-Apr-17 22:33N 37°53' W 030°04'1918.9
2015-Apr-17 21:33N 37°52' W 030°28'28718.5
2015-Apr-17 06:00N 37°30' W 036°30'   250 / 261014.0 5.4 2.516.012.416.0

Dump ship's entire track history